PWSweather.com
Personal Weather Stations
Station Observations
KMDSOLOM1
solomons, Solomons, MD 20688

solomonsSolomons, MD 20688

Lat: 38.32, Lon: -76.45

Elevation: 5

Station Type:

http://www.act-us.info/weather

High Low Average
Temperature 72.7°F22.6°C 57.1°F13.9°C 62.4°F16.9°C
Dew Point 65.9°F18.8°C 46.9°F8.3°C 58.3°F14.6°C
Winds 25.0 mph 40.2 kmh Calm Calm 8.0 mph SE12.9 kmh SE
Wind Gusts 34.0 mph54.7 kmh 1.0 mph1.6 kmh 14.0 mph22.5 kmh
Humidity 94% 68% 87%
Pressure 29.76 in1007.8 mb 29.27 in991.2 mb -
Precipitation 0.00 in0.0 mm - -
Hour Temp Dew Point Humidity Winds Wind Gusts Pressure Precip Precip Rate Daily Precip Total
12:00 AM 61.2°F16.2°C 56.0°F13.3°C 83% 7.0 mph NNE11.3 kmh NNE 7.0 mph11.3 kmh 29.75 in1007.5 mb 0.00 in0.0 mm 0.00 in0.0 mm 0.00 in0.0 mm
12:05 AM 61.0°F16.1°C 55.5°F13.1°C 82% 4.0 mph NNE6.4 kmh NNE 7.0 mph11.3 kmh 29.76 in1007.8 mb 0.00 in0.0 mm 0.00 in0.0 mm 0.00 in0.0 mm
12:10 AM 61.0°F16.1°C 55.8°F13.2°C 83% 5.0 mph NNE8.0 kmh NNE 7.0 mph11.3 kmh 29.76 in1007.8 mb 0.00 in0.0 mm 0.00 in0.0 mm 0.00 in0.0 mm
12:15 AM 60.9°F16.1°C 56.0°F13.3°C 84% 4.0 mph NNE6.4 kmh NNE 5.0 mph8.0 kmh 29.76 in1007.8 mb 0.00 in0.0 mm 0.00 in0.0 mm 0.00 in0.0 mm
12:20 AM 60.8°F16.0°C 55.6°F13.1°C 83% 5.0 mph NNE8.0 kmh NNE 7.0 mph11.3 kmh 29.75 in1007.5 mb 0.00 in0.0 mm 0.00 in0.0 mm 0.00 in0.0 mm
12:25 AM 60.7°F15.9°C 55.8°F13.2°C 84% 4.0 mph NNE6.4 kmh NNE 8.0 mph12.9 kmh 29.75 in1007.5 mb 0.00 in0.0 mm 0.00 in0.0 mm 0.00 in0.0 mm
12:30 AM 60.6°F15.9°C 55.8°F13.2°C 84% 3.0 mph NNE4.8 kmh NNE 4.0 mph6.4 kmh 29.75 in1007.5 mb 0.00 in0.0 mm 0.00 in0.0 mm 0.00 in0.0 mm
12:35 AM 60.4°F15.8°C 55.9°F13.3°C 85% 3.0 mph NNE4.8 kmh NNE 4.0 mph6.4 kmh 29.74 in1007.1 mb 0.00 in0.0 mm 0.00 in0.0 mm 0.00 in0.0 mm
12:40 AM 60.2°F15.7°C 56.0°F13.3°C 86% 5.0 mph NNE8.0 kmh NNE 5.0 mph8.0 kmh 29.74 in1007.1 mb 0.00 in0.0 mm 0.00 in0.0 mm 0.00 in0.0 mm
12:45 AM 60.3°F15.7°C 56.1°F13.4°C 86% 5.0 mph NNE8.0 kmh NNE 8.0 mph12.9 kmh 29.74 in1007.1 mb 0.00 in0.0 mm 0.00 in0.0 mm 0.00 in0.0 mm
12:50 AM 60.4°F15.8°C 56.2°F13.4°C 86% 5.0 mph NNE8.0 kmh NNE 8.0 mph12.9 kmh 29.74 in1007.1 mb 0.00 in0.0 mm 0.00 in0.0 mm 0.00 in0.0 mm
12:55 AM 60.5°F15.8°C 56.3°F13.5°C 86% 8.0 mph NNE12.9 kmh NNE 8.0 mph12.9 kmh 29.73 in1006.8 mb 0.00 in0.0 mm 0.00 in0.0 mm 0.00 in0.0 mm
01:00 AM 60.6°F15.9°C 56.4°F13.6°C 86% 4.0 mph NNE6.4 kmh NNE 8.0 mph12.9 kmh 29.73 in1006.8 mb 0.00 in0.0 mm 0.00 in0.0 mm 0.00 in0.0 mm
01:05 AM 60.5°F15.8°C 56.3°F13.5°C 86% 3.0 mph NNE4.8 kmh NNE 8.0 mph12.9 kmh 29.73 in1006.8 mb 0.00 in0.0 mm 0.00 in0.0 mm 0.00 in0.0 mm
01:10 AM 60.3°F15.7°C 56.1°F13.4°C 86% 3.0 mph NNE4.8 kmh NNE 8.0 mph12.9 kmh 29.73 in1006.8 mb 0.00 in0.0 mm 0.00 in0.0 mm 0.00 in0.0 mm
01:15 AM 60.3°F15.7°C 56.1°F13.4°C 86% 3.0 mph NNE4.8 kmh NNE 5.0 mph8.0 kmh 29.72 in1006.4 mb 0.00 in0.0 mm 0.00 in0.0 mm 0.00 in0.0 mm
01:20 AM 60.2°F15.7°C 56.0°F13.3°C 86% 4.0 mph NNE6.4 kmh NNE 5.0 mph8.0 kmh 29.72 in1006.4 mb 0.00 in0.0 mm 0.00 in0.0 mm 0.00 in0.0 mm
01:25 AM 60.2°F15.7°C 56.0°F13.3°C 86% 3.0 mph NNE4.8 kmh NNE 7.0 mph11.3 kmh 29.71 in1006.1 mb 0.00 in0.0 mm 0.00 in0.0 mm 0.00 in0.0 mm
01:30 AM 60.2°F15.7°C 56.0°F13.3°C 86% 4.0 mph NNE6.4 kmh NNE 5.0 mph8.0 kmh 29.71 in1006.1 mb 0.00 in0.0 mm 0.00 in0.0 mm 0.00 in0.0 mm
01:35 AM 60.1°F15.6°C 55.9°F13.3°C 86% 4.0 mph NNE6.4 kmh NNE 5.0 mph8.0 kmh 29.70 in1005.8 mb 0.00 in0.0 mm 0.00 in0.0 mm 0.00 in0.0 mm
01:40 AM 60.0°F15.6°C 56.1°F13.4°C 87% 4.0 mph NNE6.4 kmh NNE 5.0 mph8.0 kmh 29.70 in1005.8 mb 0.00 in0.0 mm 0.00 in0.0 mm 0.00 in0.0 mm
01:45 AM 60.1°F15.6°C 56.5°F13.6°C 88% 5.0 mph NNE8.0 kmh NNE 7.0 mph11.3 kmh 29.70 in1005.8 mb 0.00 in0.0 mm 0.00 in0.0 mm 0.00 in0.0 mm
01:50 AM 60.2°F15.7°C 56.6°F13.7°C 88% 7.0 mph NNE11.3 kmh NNE 8.0 mph12.9 kmh 29.70 in1005.8 mb 0.00 in0.0 mm 0.00 in0.0 mm 0.00 in0.0 mm
01:55 AM 60.4°F15.8°C 56.8°F13.8°C 88% 5.0 mph NNE8.0 kmh NNE 8.0 mph12.9 kmh 29.69 in1005.4 mb 0.00 in0.0 mm 0.00 in0.0 mm 0.00 in0.0 mm
02:00 AM 60.4°F15.8°C 56.8°F13.8°C 88% 7.0 mph NNE11.3 kmh NNE 8.0 mph12.9 kmh 29.69 in1005.4 mb 0.00 in0.0 mm 0.00 in0.0 mm 0.00 in0.0 mm
02:05 AM 60.5°F15.8°C 57.3°F14.1°C 89% 8.0 mph NNE12.9 kmh NNE 8.0 mph12.9 kmh 29.69 in1005.4 mb 0.00 in0.0 mm 0.00 in0.0 mm 0.00 in0.0 mm
02:10 AM 60.5°F15.8°C 57.3°F14.1°C 89% 7.0 mph NNE11.3 kmh NNE 8.0 mph12.9 kmh 29.69 in1005.4 mb 0.00 in0.0 mm 0.00 in0.0 mm 0.00 in0.0 mm
02:15 AM 60.4°F15.8°C 56.8°F13.8°C 88% 8.0 mph NNE12.9 kmh NNE 8.0 mph12.9 kmh 29.68 in1005.1 mb 0.00 in0.0 mm 0.00 in0.0 mm 0.00 in0.0 mm
02:20 AM 60.4°F15.8°C 57.2°F14.0°C 89% 8.0 mph NNE12.9 kmh NNE 8.0 mph12.9 kmh 29.69 in1005.4 mb 0.00 in0.0 mm 0.00 in0.0 mm 0.00 in0.0 mm
02:25 AM 60.4°F15.8°C 57.2°F14.0°C 89% 8.0 mph NNE12.9 kmh NNE 8.0 mph12.9 kmh 29.69 in1005.4 mb 0.00 in0.0 mm 0.00 in0.0 mm 0.00 in0.0 mm
02:30 AM 60.5°F15.8°C 57.3°F14.1°C 89% 7.0 mph NNE11.3 kmh NNE 8.0 mph12.9 kmh 29.69 in1005.4 mb 0.00 in0.0 mm 0.00 in0.0 mm 0.00 in0.0 mm
02:35 AM 60.4°F15.8°C 57.2°F14.0°C 89% 5.0 mph NNE8.0 kmh NNE 8.0 mph12.9 kmh 29.69 in1005.4 mb 0.00 in0.0 mm 0.00 in0.0 mm 0.00 in0.0 mm
02:40 AM 60.4°F15.8°C 57.2°F14.0°C 89% 5.0 mph NNE8.0 kmh NNE 8.0 mph12.9 kmh 29.69 in1005.4 mb 0.00 in0.0 mm 0.00 in0.0 mm 0.00 in0.0 mm
02:45 AM 60.4°F15.8°C 57.2°F14.0°C 89% 7.0 mph NNE11.3 kmh NNE 7.0 mph11.3 kmh 29.68 in1005.1 mb 0.00 in0.0 mm 0.00 in0.0 mm 0.00 in0.0 mm
02:50 AM 60.3°F15.7°C 57.1°F13.9°C 89% 4.0 mph NNE6.4 kmh NNE 7.0 mph11.3 kmh 29.68 in1005.1 mb 0.00 in0.0 mm 0.00 in0.0 mm 0.00 in0.0 mm
02:55 AM 60.3°F15.7°C 57.1°F13.9°C 89% 5.0 mph NNE8.0 kmh NNE 7.0 mph11.3 kmh 29.68 in1005.1 mb 0.00 in0.0 mm 0.00 in0.0 mm 0.00 in0.0 mm
03:00 AM 60.3°F15.7°C 57.1°F13.9°C 89% 7.0 mph NNE11.3 kmh NNE 7.0 mph11.3 kmh 29.67 in1004.7 mb 0.00 in0.0 mm 0.00 in0.0 mm 0.00 in0.0 mm
03:05 AM 60.2°F15.7°C 57.0°F13.9°C 89% 9.0 mph NNE14.5 kmh NNE 9.0 mph14.5 kmh 29.67 in1004.7 mb 0.00 in0.0 mm 0.00 in0.0 mm 0.00 in0.0 mm
03:10 AM 60.1°F15.6°C 56.9°F13.8°C 89% 8.0 mph NNE12.9 kmh NNE 9.0 mph14.5 kmh 29.67 in1004.7 mb 0.00 in0.0 mm 0.00 in0.0 mm 0.00 in0.0 mm
03:15 AM 60.2°F15.7°C 57.0°F13.9°C 89% 6.0 mph NNE9.7 kmh NNE 9.0 mph14.5 kmh 29.67 in1004.7 mb 0.00 in0.0 mm 0.00 in0.0 mm 0.00 in0.0 mm
03:20 AM 60.2°F15.7°C 57.0°F13.9°C 89% 10.0 mph NE16.1 kmh NE 10.0 mph16.1 kmh 29.68 in1005.1 mb 0.00 in0.0 mm 0.00 in0.0 mm 0.00 in0.0 mm
03:25 AM 60.1°F15.6°C 56.9°F13.8°C 89% 11.0 mph NE17.7 kmh NE 11.0 mph17.7 kmh 29.67 in1004.7 mb 0.00 in0.0 mm 0.00 in0.0 mm 0.00 in0.0 mm
03:30 AM 60.1°F15.6°C 57.2°F14.0°C 90% 9.0 mph NE14.5 kmh NE 11.0 mph17.7 kmh 29.66 in1004.4 mb 0.00 in0.0 mm 0.00 in0.0 mm 0.00 in0.0 mm
03:35 AM 60.0°F15.6°C 57.1°F13.9°C 90% 9.0 mph NE14.5 kmh NE 11.0 mph17.7 kmh 29.66 in1004.4 mb 0.00 in0.0 mm 0.00 in0.0 mm 0.00 in0.0 mm
03:40 AM 60.0°F15.6°C 57.1°F13.9°C 90% 11.0 mph NE17.7 kmh NE 11.0 mph17.7 kmh 29.65 in1004.1 mb 0.00 in0.0 mm 0.00 in0.0 mm 0.00 in0.0 mm
03:45 AM 60.1°F15.6°C 57.5°F14.2°C 91% 12.0 mph NE19.3 kmh NE 12.0 mph19.3 kmh 29.66 in1004.4 mb 0.00 in0.0 mm 0.00 in0.0 mm 0.00 in0.0 mm
03:50 AM 60.0°F15.6°C 57.4°F14.1°C 91% 10.0 mph N16.1 kmh N 12.0 mph19.3 kmh 29.65 in1004.1 mb 0.00 in0.0 mm 0.00 in0.0 mm 0.00 in0.0 mm
03:55 AM 60.0°F15.6°C 57.4°F14.1°C 91% 11.0 mph N17.7 kmh N 13.0 mph20.9 kmh 29.63 in1003.4 mb 0.00 in0.0 mm 0.00 in0.0 mm 0.00 in0.0 mm
04:00 AM 60.2°F15.7°C 57.6°F14.2°C 91% 14.0 mph NE22.5 kmh NE 15.0 mph24.1 kmh 29.66 in1004.4 mb 0.00 in0.0 mm 0.00 in0.0 mm 0.00 in0.0 mm
04:05 AM 60.2°F15.7°C 57.6°F14.2°C 91% 11.0 mph NE17.7 kmh NE 15.0 mph24.1 kmh 29.65 in1004.1 mb 0.00 in0.0 mm 0.00 in0.0 mm 0.00 in0.0 mm
04:10 AM 60.1°F15.6°C 57.8°F14.3°C 92% 9.0 mph NE14.5 kmh NE 15.0 mph24.1 kmh 29.65 in1004.1 mb 0.00 in0.0 mm 0.00 in0.0 mm 0.00 in0.0 mm
04:15 AM 60.1°F15.6°C 57.8°F14.3°C 92% 10.0 mph NE16.1 kmh NE 11.0 mph17.7 kmh 29.65 in1004.1 mb 0.00 in0.0 mm 0.00 in0.0 mm 0.00 in0.0 mm
04:20 AM 60.1°F15.6°C 57.8°F14.3°C 92% 9.0 mph NE14.5 kmh NE 11.0 mph17.7 kmh 29.63 in1003.4 mb 0.00 in0.0 mm 0.00 in0.0 mm 0.00 in0.0 mm
04:25 AM 60.0°F15.6°C 57.7°F14.3°C 92% 10.0 mph NNE16.1 kmh NNE 11.0 mph17.7 kmh 29.63 in1003.4 mb 0.00 in0.0 mm 0.00 in0.0 mm 0.00 in0.0 mm
04:30 AM 60.0°F15.6°C 57.7°F14.3°C 92% 6.0 mph N9.7 kmh N 11.0 mph17.7 kmh 29.62 in1003.0 mb 0.00 in0.0 mm 0.00 in0.0 mm 0.00 in0.0 mm
04:35 AM 60.0°F15.6°C 57.7°F14.3°C 92% 7.0 mph N11.3 kmh N 11.0 mph17.7 kmh 29.62 in1003.0 mb 0.00 in0.0 mm 0.00 in0.0 mm 0.00 in0.0 mm
04:40 AM 60.2°F15.7°C 57.9°F14.4°C 92% 13.0 mph NE20.9 kmh NE 16.0 mph25.7 kmh 29.63 in1003.4 mb 0.00 in0.0 mm 0.00 in0.0 mm 0.00 in0.0 mm
04:45 AM 60.3°F15.7°C 58.0°F14.4°C 92% 11.0 mph ENE17.7 kmh ENE 16.0 mph25.7 kmh 29.63 in1003.4 mb 0.00 in0.0 mm 0.00 in0.0 mm 0.00 in0.0 mm
04:50 AM 60.3°F15.7°C 58.0°F14.4°C 92% 13.0 mph NE20.9 kmh NE 18.0 mph29.0 kmh 29.63 in1003.4 mb 0.00 in0.0 mm 0.00 in0.0 mm 0.00 in0.0 mm
04:55 AM 60.4°F15.8°C 58.1°F14.5°C 92% 13.0 mph NE20.9 kmh NE 18.0 mph29.0 kmh 29.63 in1003.4 mb 0.00 in0.0 mm 0.00 in0.0 mm 0.00 in0.0 mm
05:00 AM 60.4°F15.8°C 58.1°F14.5°C 92% 13.0 mph NE20.9 kmh NE 16.0 mph25.7 kmh 29.63 in1003.4 mb 0.00 in0.0 mm 0.00 in0.0 mm 0.00 in0.0 mm
05:05 AM 60.4°F15.8°C 58.1°F14.5°C 92% 11.0 mph NE17.7 kmh NE 16.0 mph25.7 kmh 29.62 in1003.0 mb 0.00 in0.0 mm 0.00 in0.0 mm 0.00 in0.0 mm
05:10 AM 60.4°F15.8°C 58.1°F14.5°C 92% 14.0 mph NE22.5 kmh NE 16.0 mph25.7 kmh 29.61 in1002.7 mb 0.00 in0.0 mm 0.00 in0.0 mm 0.00 in0.0 mm
05:15 AM 60.4°F15.8°C 58.4°F14.7°C 93% 12.0 mph NE19.3 kmh NE 16.0 mph25.7 kmh 29.61 in1002.7 mb 0.00 in0.0 mm 0.00 in0.0 mm 0.00 in0.0 mm
05:20 AM 60.4°F15.8°C 58.4°F14.7°C 93% 11.0 mph NNE17.7 kmh NNE 16.0 mph25.7 kmh 29.60 in1002.4 mb 0.00 in0.0 mm 0.00 in0.0 mm 0.00 in0.0 mm
05:25 AM 60.5°F15.8°C 58.5°F14.7°C 93% 10.0 mph NNE16.1 kmh NNE 16.0 mph25.7 kmh 29.60 in1002.4 mb 0.00 in0.0 mm 0.00 in0.0 mm 0.00 in0.0 mm
05:30 AM 60.5°F15.8°C 58.5°F14.7°C 93% 9.0 mph NNE14.5 kmh NNE 12.0 mph19.3 kmh 29.60 in1002.4 mb 0.00 in0.0 mm 0.00 in0.0 mm 0.00 in0.0 mm
05:35 AM 60.4°F15.8°C 58.4°F14.7°C 93% 11.0 mph NE17.7 kmh NE 12.0 mph19.3 kmh 29.61 in1002.7 mb 0.00 in0.0 mm 0.00 in0.0 mm 0.00 in0.0 mm
05:40 AM 60.5°F15.8°C 58.5°F14.7°C 93% 10.0 mph NE16.1 kmh NE 12.0 mph19.3 kmh 29.62 in1003.0 mb 0.00 in0.0 mm 0.00 in0.0 mm 0.00 in0.0 mm
05:45 AM 60.5°F15.8°C 58.5°F14.7°C 93% 13.0 mph NE20.9 kmh NE 15.0 mph24.1 kmh 29.62 in1003.0 mb 0.00 in0.0 mm 0.00 in0.0 mm 0.00 in0.0 mm
05:50 AM 60.5°F15.8°C 58.5°F14.7°C 93% 10.0 mph NE16.1 kmh NE 15.0 mph24.1 kmh 29.62 in1003.0 mb 0.00 in0.0 mm 0.00 in0.0 mm 0.00 in0.0 mm
05:55 AM 60.5°F15.8°C 58.5°F14.7°C 93% 11.0 mph NE17.7 kmh NE 15.0 mph24.1 kmh 29.62 in1003.0 mb 0.00 in0.0 mm 0.00 in0.0 mm 0.00 in0.0 mm
06:00 AM 60.5°F15.8°C 58.5°F14.7°C 93% 9.0 mph NE14.5 kmh NE 11.0 mph17.7 kmh 29.62 in1003.0 mb 0.00 in0.0 mm 0.00 in0.0 mm 0.00 in0.0 mm
06:05 AM 60.8°F16.0°C 59.1°F15.1°C 94% 10.0 mph NE16.1 kmh NE 11.0 mph17.7 kmh 29.62 in1003.0 mb 0.00 in0.0 mm 0.00 in0.0 mm 0.00 in0.0 mm
06:10 AM 61.0°F16.1°C 59.3°F15.2°C 94% 10.0 mph NE16.1 kmh NE 12.0 mph19.3 kmh 29.61 in1002.7 mb 0.00 in0.0 mm 0.00 in0.0 mm 0.00 in0.0 mm
06:15 AM 61.2°F16.2°C 59.5°F15.3°C 94% 11.0 mph NE17.7 kmh NE 12.0 mph19.3 kmh 29.61 in1002.7 mb 0.00 in0.0 mm 0.00 in0.0 mm 0.00 in0.0 mm
06:20 AM 61.3°F16.3°C 59.6°F15.3°C 94% 10.0 mph NE16.1 kmh NE 13.0 mph20.9 kmh 29.61 in1002.7 mb 0.00 in0.0 mm 0.00 in0.0 mm 0.00 in0.0 mm
06:25 AM 61.4°F16.3°C 59.7°F15.4°C 94% 13.0 mph NE20.9 kmh NE 14.0 mph22.5 kmh 29.61 in1002.7 mb 0.00 in0.0 mm 0.00 in0.0 mm 0.00 in0.0 mm
06:30 AM 61.4°F16.3°C 59.7°F15.4°C 94% 13.0 mph NE20.9 kmh NE 14.0 mph22.5 kmh 29.61 in1002.7 mb 0.00 in0.0 mm 0.00 in0.0 mm 0.00 in0.0 mm
06:35 AM 61.5°F16.4°C 59.8°F15.4°C 94% 13.0 mph NE20.9 kmh NE 15.0 mph24.1 kmh 29.60 in1002.4 mb 0.00 in0.0 mm 0.00 in0.0 mm 0.00 in0.0 mm
06:40 AM 61.6°F16.4°C 59.9°F15.5°C 94% 14.0 mph NE22.5 kmh NE 16.0 mph25.7 kmh 29.60 in1002.4 mb 0.00 in0.0 mm 0.00 in0.0 mm 0.00 in0.0 mm
06:45 AM 61.7°F16.5°C 60.0°F15.6°C 94% 12.0 mph NE19.3 kmh NE 16.0 mph25.7 kmh 29.61 in1002.7 mb 0.00 in0.0 mm 0.00 in0.0 mm 0.00 in0.0 mm
06:50 AM 61.7°F16.5°C 60.0°F15.6°C 94% 9.0 mph ENE14.5 kmh ENE 16.0 mph25.7 kmh 29.61 in1002.7 mb 0.00 in0.0 mm 0.00 in0.0 mm 0.00 in0.0 mm
06:55 AM 61.8°F16.6°C 60.1°F15.6°C 94% 6.0 mph ENE9.7 kmh ENE 16.0 mph25.7 kmh 29.60 in1002.4 mb 0.00 in0.0 mm 0.00 in0.0 mm 0.00 in0.0 mm
07:00 AM 61.8°F16.6°C 60.1°F15.6°C 94% 5.0 mph NE8.0 kmh NE 8.0 mph12.9 kmh 29.60 in1002.4 mb 0.00 in0.0 mm 0.00 in0.0 mm 0.00 in0.0 mm
07:05 AM 61.8°F16.6°C 60.1°F15.6°C 94% 5.0 mph NE8.0 kmh NE 8.0 mph12.9 kmh 29.60 in1002.4 mb 0.00 in0.0 mm 0.00 in0.0 mm 0.00 in0.0 mm
07:10 AM 62.0°F16.7°C 60.3°F15.7°C 94% 10.0 mph NE16.1 kmh NE 11.0 mph17.7 kmh 29.60 in1002.4 mb 0.00 in0.0 mm 0.00 in0.0 mm 0.00 in0.0 mm
07:15 AM 62.1°F16.7°C 60.4°F15.8°C 94% 6.0 mph NE9.7 kmh NE 12.0 mph19.3 kmh 29.60 in1002.4 mb 0.00 in0.0 mm 0.00 in0.0 mm 0.00 in0.0 mm
07:20 AM 62.1°F16.7°C 60.4°F15.8°C 94% 4.0 mph NE6.4 kmh NE 12.0 mph19.3 kmh 29.60 in1002.4 mb 0.00 in0.0 mm 0.00 in0.0 mm 0.00 in0.0 mm
07:25 AM 62.2°F16.8°C 60.5°F15.8°C 94% 3.0 mph NE4.8 kmh NE 12.0 mph19.3 kmh 29.60 in1002.4 mb 0.00 in0.0 mm 0.00 in0.0 mm 0.00 in0.0 mm
07:30 AM 62.5°F16.9°C 60.8°F16.0°C 94% Calm Calm 7.0 mph11.3 kmh 29.59 in1002.0 mb 0.00 in0.0 mm 0.00 in0.0 mm 0.00 in0.0 mm
07:35 AM 63.1°F17.3°C 61.1°F16.2°C 93% 3.0 mph E4.8 kmh E 7.0 mph11.3 kmh 29.59 in1002.0 mb 0.00 in0.0 mm 0.00 in0.0 mm 0.00 in0.0 mm
07:40 AM 63.3°F17.4°C 61.3°F16.3°C 93% 11.0 mph E17.7 kmh E 12.0 mph19.3 kmh 29.58 in1001.7 mb 0.00 in0.0 mm 0.00 in0.0 mm 0.00 in0.0 mm
07:45 AM 63.5°F17.5°C 61.4°F16.3°C 93% 9.0 mph E14.5 kmh E 13.0 mph20.9 kmh 29.58 in1001.7 mb 0.00 in0.0 mm 0.00 in0.0 mm 0.00 in0.0 mm
07:50 AM 63.6°F17.6°C 61.2°F16.2°C 92% 4.0 mph E6.4 kmh E 13.0 mph20.9 kmh 29.58 in1001.7 mb 0.00 in0.0 mm 0.00 in0.0 mm 0.00 in0.0 mm
07:55 AM 63.7°F17.6°C 61.3°F16.3°C 92% 10.0 mph E16.1 kmh E 14.0 mph22.5 kmh 29.58 in1001.7 mb 0.00 in0.0 mm 0.00 in0.0 mm 0.00 in0.0 mm
08:00 AM 64.1°F17.8°C 61.7°F16.5°C 92% 13.0 mph E20.9 kmh E 14.0 mph22.5 kmh 29.57 in1001.4 mb 0.00 in0.0 mm 0.00 in0.0 mm 0.00 in0.0 mm
08:05 AM 64.7°F18.2°C 61.7°F16.5°C 90% 13.0 mph E20.9 kmh E 15.0 mph24.1 kmh 29.56 in1001.0 mb 0.00 in0.0 mm 0.00 in0.0 mm 0.00 in0.0 mm
08:10 AM 65.1°F18.4°C 61.8°F16.6°C 89% 2.0 mph E3.2 kmh E 15.0 mph24.1 kmh 29.56 in1001.0 mb 0.00 in0.0 mm 0.00 in0.0 mm 0.00 in0.0 mm
08:15 AM 65.0°F18.3°C 62.0°F16.7°C 90% 9.0 mph E14.5 kmh E 9.0 mph14.5 kmh 29.54 in1000.3 mb 0.00 in0.0 mm 0.00 in0.0 mm 0.00 in0.0 mm
08:20 AM 65.1°F18.4°C 62.1°F16.7°C 90% 4.0 mph E6.4 kmh E 9.0 mph14.5 kmh 29.55 in1000.7 mb 0.00 in0.0 mm 0.00 in0.0 mm 0.00 in0.0 mm
08:25 AM 65.4°F18.6°C 62.4°F16.9°C 90% 3.0 mph E4.8 kmh E 10.0 mph16.1 kmh 29.55 in1000.7 mb 0.00 in0.0 mm 0.00 in0.0 mm 0.00 in0.0 mm
08:30 AM 65.6°F18.7°C 62.3°F16.8°C 89% 2.0 mph E3.2 kmh E 8.0 mph12.9 kmh 29.54 in1000.3 mb 0.00 in0.0 mm 0.00 in0.0 mm 0.00 in0.0 mm
08:35 AM 65.8°F18.8°C 62.5°F16.9°C 89% 2.0 mph ESE3.2 kmh ESE 10.0 mph16.1 kmh 29.54 in1000.3 mb 0.00 in0.0 mm 0.00 in0.0 mm 0.00 in0.0 mm
08:40 AM 66.2°F19.0°C 62.6°F17.0°C 88% 2.0 mph ESE3.2 kmh ESE 10.0 mph16.1 kmh 29.54 in1000.3 mb 0.00 in0.0 mm 0.00 in0.0 mm 0.00 in0.0 mm
08:45 AM 65.8°F18.8°C 62.2°F16.8°C 88% 8.0 mph E12.9 kmh E 9.0 mph14.5 kmh 29.53 in1000.0 mb 0.00 in0.0 mm 0.00 in0.0 mm 0.00 in0.0 mm
08:50 AM 65.9°F18.8°C 62.3°F16.8°C 88% 12.0 mph E19.3 kmh E 15.0 mph24.1 kmh 29.54 in1000.3 mb 0.00 in0.0 mm 0.00 in0.0 mm 0.00 in0.0 mm
08:55 AM 66.1°F18.9°C 62.5°F16.9°C 88% 4.0 mph ESE6.4 kmh ESE 15.0 mph24.1 kmh 29.54 in1000.3 mb 0.00 in0.0 mm 0.00 in0.0 mm 0.00 in0.0 mm
09:00 AM 66.3°F19.1°C 62.6°F17.0°C 88% 6.0 mph ESE9.7 kmh ESE 11.0 mph17.7 kmh 29.53 in1000.0 mb 0.00 in0.0 mm 0.00 in0.0 mm 0.00 in0.0 mm
09:05 AM 66.3°F19.1°C 62.3°F16.8°C 87% 7.0 mph SE11.3 kmh SE 11.0 mph17.7 kmh 29.53 in1000.0 mb 0.00 in0.0 mm 0.00 in0.0 mm 0.00 in0.0 mm
09:10 AM 66.6°F19.2°C 62.6°F17.0°C 87% 3.0 mph ESE4.8 kmh ESE 11.0 mph17.7 kmh 29.53 in1000.0 mb 0.00 in0.0 mm 0.00 in0.0 mm 0.00 in0.0 mm
09:15 AM 67.0°F19.4°C 63.0°F17.2°C 87% Calm Calm 7.0 mph11.3 kmh 29.52 in999.7 mb 0.00 in0.0 mm 0.00 in0.0 mm 0.00 in0.0 mm
09:20 AM 67.2°F19.6°C 62.9°F17.2°C 86% 6.0 mph ESE9.7 kmh ESE 8.0 mph12.9 kmh 29.51 in999.3 mb 0.00 in0.0 mm 0.00 in0.0 mm 0.00 in0.0 mm
09:25 AM 67.0°F19.4°C 63.0°F17.2°C 87% 3.0 mph ESE4.8 kmh ESE 9.0 mph14.5 kmh 29.52 in999.7 mb 0.00 in0.0 mm 0.00 in0.0 mm 0.00 in0.0 mm
09:30 AM 66.7°F19.3°C 62.4°F16.9°C 86% 3.0 mph E4.8 kmh E 14.0 mph22.5 kmh 29.51 in999.3 mb 0.00 in0.0 mm 0.00 in0.0 mm 0.00 in0.0 mm
09:35 AM 66.8°F19.3°C 62.5°F16.9°C 86% 8.0 mph E12.9 kmh E 14.0 mph22.5 kmh 29.51 in999.3 mb 0.00 in0.0 mm 0.00 in0.0 mm 0.00 in0.0 mm
09:40 AM 67.0°F19.4°C 62.7°F17.1°C 86% 6.0 mph E9.7 kmh E 14.0 mph22.5 kmh 29.51 in999.3 mb 0.00 in0.0 mm 0.00 in0.0 mm 0.00 in0.0 mm
09:45 AM 67.4°F19.7°C 63.1°F17.3°C 86% 4.0 mph E6.4 kmh E 10.0 mph16.1 kmh 29.52 in999.7 mb 0.00 in0.0 mm 0.00 in0.0 mm 0.00 in0.0 mm
09:50 AM 67.5°F19.7°C 62.8°F17.1°C 85% 7.0 mph E11.3 kmh E 10.0 mph16.1 kmh 29.51 in999.3 mb 0.00 in0.0 mm 0.00 in0.0 mm 0.00 in0.0 mm
09:55 AM 67.5°F19.7°C 62.8°F17.1°C 85% 2.0 mph ESE3.2 kmh ESE 11.0 mph17.7 kmh 29.52 in999.7 mb 0.00 in0.0 mm 0.00 in0.0 mm 0.00 in0.0 mm
10:00 AM 67.6°F19.8°C 62.9°F17.2°C 85% 4.0 mph ESE6.4 kmh ESE 14.0 mph22.5 kmh 29.52 in999.7 mb 0.00 in0.0 mm 0.00 in0.0 mm 0.00 in0.0 mm
10:05 AM 67.6°F19.8°C 63.3°F17.4°C 86% 3.0 mph SE4.8 kmh SE 14.0 mph22.5 kmh 29.53 in1000.0 mb 0.00 in0.0 mm 0.00 in0.0 mm 0.00 in0.0 mm
10:10 AM 67.3°F19.6°C 63.0°F17.2°C 86% 10.0 mph SE16.1 kmh SE 14.0 mph22.5 kmh 29.54 in1000.3 mb 0.00 in0.0 mm 0.00 in0.0 mm 0.00 in0.0 mm
10:15 AM 66.8°F19.3°C 62.8°F17.1°C 87% 9.0 mph E14.5 kmh E 16.0 mph25.7 kmh 29.53 in1000.0 mb 0.00 in0.0 mm 0.00 in0.0 mm 0.00 in0.0 mm
10:20 AM 66.2°F19.0°C 62.6°F17.0°C 88% 7.0 mph ESE11.3 kmh ESE 18.0 mph29.0 kmh 29.52 in999.7 mb 0.00 in0.0 mm 0.00 in0.0 mm 0.00 in0.0 mm
10:25 AM 65.8°F18.8°C 62.2°F16.8°C 88% 6.0 mph E9.7 kmh E 18.0 mph29.0 kmh 29.50 in999.0 mb 0.00 in0.0 mm 0.00 in0.0 mm 0.00 in0.0 mm
10:30 AM 65.2°F18.4°C 61.9°F16.6°C 89% 2.0 mph E3.2 kmh E 12.0 mph19.3 kmh 29.49 in998.6 mb 0.00 in0.0 mm 0.00 in0.0 mm 0.00 in0.0 mm
10:35 AM 65.0°F18.3°C 62.3°F16.8°C 91% 4.0 mph ESE6.4 kmh ESE 12.0 mph19.3 kmh 29.49 in998.6 mb 0.00 in0.0 mm 0.00 in0.0 mm 0.00 in0.0 mm
10:40 AM 65.4°F18.6°C 62.7°F17.1°C 91% 4.0 mph SE6.4 kmh SE 12.0 mph19.3 kmh 29.51 in999.3 mb 0.00 in0.0 mm 0.00 in0.0 mm 0.00 in0.0 mm
10:45 AM 65.3°F18.5°C 62.6°F17.0°C 91% 6.0 mph ESE9.7 kmh ESE 9.0 mph14.5 kmh 29.50 in999.0 mb 0.00 in0.0 mm 0.00 in0.0 mm 0.00 in0.0 mm
10:50 AM 65.2°F18.4°C 62.2°F16.8°C 90% 12.0 mph E19.3 kmh E 15.0 mph24.1 kmh 29.50 in999.0 mb 0.00 in0.0 mm 0.00 in0.0 mm 0.00 in0.0 mm
10:55 AM 65.0°F18.3°C 62.0°F16.7°C 90% 16.0 mph E25.7 kmh E 19.0 mph30.6 kmh 29.49 in998.6 mb 0.00 in0.0 mm 0.00 in0.0 mm 0.00 in0.0 mm
11:00 AM 64.9°F18.3°C 61.9°F16.6°C 90% 20.0 mph E32.2 kmh E 25.0 mph40.2 kmh 29.48 in998.3 mb 0.00 in0.0 mm 0.00 in0.0 mm 0.00 in0.0 mm
11:05 AM 64.7°F18.2°C 61.7°F16.5°C 90% 19.0 mph E30.6 kmh E 25.0 mph40.2 kmh 29.47 in998.0 mb 0.00 in0.0 mm 0.00 in0.0 mm 0.00 in0.0 mm
11:10 AM 64.6°F18.1°C 61.6°F16.4°C 90% 19.0 mph E30.6 kmh E 25.0 mph40.2 kmh 29.47 in998.0 mb 0.00 in0.0 mm 0.00 in0.0 mm 0.00 in0.0 mm
11:15 AM 64.4°F18.0°C 61.4°F16.3°C 90% 18.0 mph E29.0 kmh E 21.0 mph33.8 kmh 29.46 in997.6 mb 0.00 in0.0 mm 0.00 in0.0 mm 0.00 in0.0 mm
11:20 AM 64.5°F18.1°C 61.5°F16.4°C 90% 15.0 mph E24.1 kmh E 21.0 mph33.8 kmh 29.45 in997.3 mb 0.00 in0.0 mm 0.00 in0.0 mm 0.00 in0.0 mm
11:25 AM 64.7°F18.2°C 61.7°F16.5°C 90% 16.0 mph ESE25.7 kmh ESE 21.0 mph33.8 kmh 29.45 in997.3 mb 0.00 in0.0 mm 0.00 in0.0 mm 0.00 in0.0 mm
11:30 AM 64.9°F18.3°C 61.6°F16.4°C 89% 13.0 mph E20.9 kmh E 21.0 mph33.8 kmh 29.44 in997.0 mb 0.00 in0.0 mm 0.00 in0.0 mm 0.00 in0.0 mm
11:35 AM 64.9°F18.3°C 61.9°F16.6°C 90% 13.0 mph E20.9 kmh E 21.0 mph33.8 kmh 29.44 in997.0 mb 0.00 in0.0 mm 0.00 in0.0 mm 0.00 in0.0 mm
11:40 AM 65.0°F18.3°C 61.7°F16.5°C 89% 13.0 mph E20.9 kmh E 21.0 mph33.8 kmh 29.44 in997.0 mb 0.00 in0.0 mm 0.00 in0.0 mm 0.00 in0.0 mm
11:45 AM 64.9°F18.3°C 61.6°F16.4°C 89% 8.0 mph ESE12.9 kmh ESE 15.0 mph24.1 kmh 29.43 in996.6 mb 0.00 in0.0 mm 0.00 in0.0 mm 0.00 in0.0 mm
11:50 AM 65.1°F18.4°C 61.8°F16.6°C 89% 10.0 mph E16.1 kmh E 15.0 mph24.1 kmh 29.43 in996.6 mb 0.00 in0.0 mm 0.00 in0.0 mm 0.00 in0.0 mm
11:55 AM 65.7°F18.7°C 62.1°F16.7°C 88% 14.0 mph E22.5 kmh E 20.0 mph32.2 kmh 29.42 in996.3 mb 0.00 in0.0 mm 0.00 in0.0 mm 0.00 in0.0 mm
12:00 PM 66.0°F18.9°C 62.0°F16.7°C 87% 7.0 mph E11.3 kmh E 18.0 mph29.0 kmh 29.42 in996.3 mb 0.00 in0.0 mm 0.00 in0.0 mm 0.00 in0.0 mm
12:05 PM 66.0°F18.9°C 62.0°F16.7°C 87% 15.0 mph ESE24.1 kmh ESE 18.0 mph29.0 kmh 29.41 in995.9 mb 0.00 in0.0 mm 0.00 in0.0 mm 0.00 in0.0 mm
12:10 PM 66.0°F18.9°C 62.4°F16.9°C 88% 13.0 mph E20.9 kmh E 18.0 mph29.0 kmh 29.41 in995.9 mb 0.00 in0.0 mm 0.00 in0.0 mm 0.00 in0.0 mm
12:15 PM 66.5°F19.2°C 62.5°F16.9°C 87% 10.0 mph ESE16.1 kmh ESE 15.0 mph24.1 kmh 29.40 in995.6 mb 0.00 in0.0 mm 0.00 in0.0 mm 0.00 in0.0 mm
12:20 PM 66.8°F19.3°C 62.8°F17.1°C 87% 12.0 mph E19.3 kmh E 15.0 mph24.1 kmh 29.40 in995.6 mb 0.00 in0.0 mm 0.00 in0.0 mm 0.00 in0.0 mm
12:25 PM 67.0°F19.4°C 63.0°F17.2°C 87% 8.0 mph E12.9 kmh E 18.0 mph29.0 kmh 29.39 in995.3 mb 0.00 in0.0 mm 0.00 in0.0 mm 0.00 in0.0 mm
12:30 PM 67.8°F19.9°C 63.5°F17.5°C 86% 8.0 mph E12.9 kmh E 18.0 mph29.0 kmh 29.39 in995.3 mb 0.00 in0.0 mm 0.00 in0.0 mm 0.00 in0.0 mm
12:35 PM 68.5°F20.3°C 63.8°F17.7°C 85% 18.0 mph E29.0 kmh E 18.0 mph29.0 kmh 29.39 in995.3 mb 0.00 in0.0 mm 0.00 in0.0 mm 0.00 in0.0 mm
12:40 PM 69.2°F20.7°C 64.2°F17.9°C 84% 13.0 mph ESE20.9 kmh ESE 24.0 mph38.6 kmh 29.38 in994.9 mb 0.00 in0.0 mm 0.00 in0.0 mm 0.00 in0.0 mm
12:45 PM 69.2°F20.7°C 63.8°F17.7°C 83% 15.0 mph E24.1 kmh E 23.0 mph37.0 kmh 29.38 in994.9 mb 0.00 in0.0 mm 0.00 in0.0 mm 0.00 in0.0 mm
12:50 PM 69.8°F21.0°C 64.4°F18.0°C 83% 14.0 mph E22.5 kmh E 23.0 mph37.0 kmh 29.38 in994.9 mb 0.00 in0.0 mm 0.00 in0.0 mm 0.00 in0.0 mm
12:55 PM 69.9°F21.1°C 64.5°F18.1°C 83% 8.0 mph ESE12.9 kmh ESE 23.0 mph37.0 kmh 29.38 in994.9 mb 0.00 in0.0 mm 0.00 in0.0 mm 0.00 in0.0 mm
01:00 PM 70.7°F21.5°C 65.3°F18.5°C 83% 4.0 mph ESE6.4 kmh ESE 13.0 mph20.9 kmh 29.38 in994.9 mb 0.00 in0.0 mm 0.00 in0.0 mm 0.00 in0.0 mm
01:05 PM 70.7°F21.5°C 65.3°F18.5°C 83% 7.0 mph E11.3 kmh E 13.0 mph20.9 kmh 29.37 in994.6 mb 0.00 in0.0 mm 0.00 in0.0 mm 0.00 in0.0 mm
01:10 PM 70.6°F21.4°C 65.2°F18.4°C 83% 10.0 mph E16.1 kmh E 13.0 mph20.9 kmh 29.37 in994.6 mb 0.00 in0.0 mm 0.00 in0.0 mm 0.00 in0.0 mm
01:15 PM 71.0°F21.7°C 65.2°F18.4°C 82% 8.0 mph E12.9 kmh E 16.0 mph25.7 kmh 29.37 in994.6 mb 0.00 in0.0 mm 0.00 in0.0 mm 0.00 in0.0 mm
01:20 PM 71.6°F22.0°C 65.5°F18.6°C 81% 8.0 mph E12.9 kmh E 16.0 mph25.7 kmh 29.36 in994.2 mb 0.00 in0.0 mm 0.00 in0.0 mm 0.00 in0.0 mm
01:25 PM 72.4°F22.4°C 65.9°F18.8°C 80% 14.0 mph E22.5 kmh E 16.0 mph25.7 kmh 29.36 in994.2 mb 0.00 in0.0 mm 0.00 in0.0 mm 0.00 in0.0 mm
01:30 PM 72.1°F22.3°C 65.6°F18.7°C 80% 14.0 mph ENE22.5 kmh ENE 18.0 mph29.0 kmh 29.35 in993.9 mb 0.00 in0.0 mm 0.00 in0.0 mm 0.00 in0.0 mm
01:35 PM 71.8°F22.1°C 65.3°F18.5°C 80% 11.0 mph E17.7 kmh E 19.0 mph30.6 kmh 29.35 in993.9 mb 0.00 in0.0 mm 0.00 in0.0 mm 0.00 in0.0 mm
01:40 PM 72.0°F22.2°C 65.5°F18.6°C 80% 12.0 mph E19.3 kmh E 19.0 mph30.6 kmh 29.34 in993.6 mb 0.00 in0.0 mm 0.00 in0.0 mm 0.00 in0.0 mm
01:45 PM 72.1°F22.3°C 65.6°F18.7°C 80% 14.0 mph E22.5 kmh E 18.0 mph29.0 kmh 29.33 in993.2 mb 0.00 in0.0 mm 0.00 in0.0 mm 0.00 in0.0 mm
01:50 PM 72.7°F22.6°C 65.8°F18.8°C 79% 14.0 mph E22.5 kmh E 18.0 mph29.0 kmh 29.33 in993.2 mb 0.00 in0.0 mm 0.00 in0.0 mm 0.00 in0.0 mm
01:55 PM 71.9°F22.2°C 65.8°F18.8°C 81% 18.0 mph E29.0 kmh E 18.0 mph29.0 kmh 29.33 in993.2 mb 0.00 in0.0 mm 0.00 in0.0 mm 0.00 in0.0 mm
02:00 PM 72.2°F22.3°C 65.3°F18.5°C 79% 10.0 mph ESE16.1 kmh ESE 26.0 mph41.8 kmh 29.32 in992.9 mb 0.00 in0.0 mm 0.00 in0.0 mm 0.00 in0.0 mm
02:05 PM 71.8°F22.1°C 65.3°F18.5°C 80% 11.0 mph E17.7 kmh E 26.0 mph41.8 kmh 29.32 in992.9 mb 0.00 in0.0 mm 0.00 in0.0 mm 0.00 in0.0 mm
02:10 PM 71.0°F21.7°C 64.9°F18.3°C 81% 15.0 mph ENE24.1 kmh ENE 26.0 mph41.8 kmh 29.30 in992.2 mb 0.00 in0.0 mm 0.00 in0.0 mm 0.00 in0.0 mm
02:15 PM 70.3°F21.3°C 64.9°F18.3°C 83% 14.0 mph ENE22.5 kmh ENE 21.0 mph33.8 kmh 29.30 in992.2 mb 0.00 in0.0 mm 0.00 in0.0 mm 0.00 in0.0 mm
02:20 PM 71.7°F22.1°C 64.9°F18.3°C 79% 16.0 mph ENE25.7 kmh ENE 21.0 mph33.8 kmh 29.29 in991.9 mb 0.00 in0.0 mm 0.00 in0.0 mm 0.00 in0.0 mm
02:25 PM 70.1°F21.2°C 64.4°F18.0°C 82% 21.0 mph E33.8 kmh E 25.0 mph40.2 kmh 29.30 in992.2 mb 0.00 in0.0 mm 0.00 in0.0 mm 0.00 in0.0 mm
02:30 PM 67.6°F19.8°C 62.9°F17.2°C 85% 24.0 mph E38.6 kmh E 32.0 mph51.5 kmh 29.28 in991.5 mb 0.00 in0.0 mm 0.00 in0.0 mm 0.00 in0.0 mm
02:35 PM 67.0°F19.4°C 63.3°F17.4°C 88% 25.0 mph E40.2 kmh E 33.0 mph53.1 kmh 29.28 in991.5 mb 0.00 in0.0 mm 0.00 in0.0 mm 0.00 in0.0 mm
02:40 PM 67.0°F19.4°C 63.3°F17.4°C 88% 22.0 mph E35.4 kmh E 33.0 mph53.1 kmh 29.28 in991.5 mb 0.00 in0.0 mm 0.00 in0.0 mm 0.00 in0.0 mm
02:45 PM 66.9°F19.4°C 62.9°F17.2°C 87% 24.0 mph E38.6 kmh E 26.0 mph41.8 kmh 29.28 in991.5 mb 0.00 in0.0 mm 0.00 in0.0 mm 0.00 in0.0 mm
02:50 PM 66.1°F18.9°C 62.1°F16.7°C 87% 16.0 mph E25.7 kmh E 29.0 mph46.7 kmh 29.28 in991.5 mb 0.00 in0.0 mm 0.00 in0.0 mm 0.00 in0.0 mm
02:55 PM 66.5°F19.2°C 63.2°F17.3°C 89% 13.0 mph E20.9 kmh E 29.0 mph46.7 kmh 29.27 in991.2 mb 0.00 in0.0 mm 0.00 in0.0 mm 0.00 in0.0 mm
03:00 PM 66.8°F19.3°C 63.5°F17.5°C 89% 4.0 mph SE6.4 kmh SE 18.0 mph29.0 kmh 29.29 in991.9 mb 0.00 in0.0 mm 0.00 in0.0 mm 0.00 in0.0 mm
03:05 PM 65.3°F18.5°C 61.3°F16.3°C 87% 20.0 mph SW32.2 kmh SW 33.0 mph53.1 kmh 29.34 in993.6 mb 0.00 in0.0 mm 0.00 in0.0 mm 0.00 in0.0 mm
03:10 PM 63.5°F17.5°C 59.9°F15.5°C 88% 11.0 mph SW17.7 kmh SW 33.0 mph53.1 kmh 29.33 in993.2 mb 0.00 in0.0 mm 0.00 in0.0 mm 0.00 in0.0 mm
03:15 PM 62.6°F17.0°C 59.3°F15.2°C 89% 4.0 mph SW6.4 kmh SW 12.0 mph19.3 kmh 29.34 in993.6 mb 0.00 in0.0 mm 0.00 in0.0 mm 0.00 in0.0 mm
03:20 PM 62.2°F16.8°C 59.2°F15.1°C 90% 3.0 mph WSW4.8 kmh WSW 12.0 mph19.3 kmh 29.33 in993.2 mb 0.00 in0.0 mm 0.00 in0.0 mm 0.00 in0.0 mm
03:25 PM 62.0°F16.7°C 59.4°F15.2°C 91% 2.0 mph W3.2 kmh W 12.0 mph19.3 kmh 29.32 in992.9 mb 0.00 in0.0 mm 0.00 in0.0 mm 0.00 in0.0 mm
03:30 PM 61.7°F16.5°C 59.1°F15.1°C 91% 1.0 mph W1.6 kmh W 7.0 mph11.3 kmh 29.32 in992.9 mb 0.00 in0.0 mm 0.00 in0.0 mm 0.00 in0.0 mm
03:35 PM 61.5°F16.4°C 59.2°F15.1°C 92% 4.0 mph W6.4 kmh W 7.0 mph11.3 kmh 29.33 in993.2 mb 0.00 in0.0 mm 0.00 in0.0 mm 0.00 in0.0 mm
03:40 PM 61.3°F16.3°C 59.0°F15.0°C 92% 3.0 mph W4.8 kmh W 7.0 mph11.3 kmh 29.33 in993.2 mb 0.00 in0.0 mm 0.00 in0.0 mm 0.00 in0.0 mm
03:45 PM 61.1°F16.2°C 58.8°F14.9°C 92% 4.0 mph SW6.4 kmh SW 8.0 mph12.9 kmh 29.34 in993.6 mb 0.00 in0.0 mm 0.00 in0.0 mm 0.00 in0.0 mm
03:50 PM 61.0°F16.1°C 58.7°F14.8°C 92% 3.0 mph SW4.8 kmh SW 8.0 mph12.9 kmh 29.33 in993.2 mb 0.00 in0.0 mm 0.00 in0.0 mm 0.00 in0.0 mm
03:55 PM 60.9°F16.1°C 58.6°F14.8°C 92% 3.0 mph SSW4.8 kmh SSW 8.0 mph12.9 kmh 29.33 in993.2 mb 0.00 in0.0 mm 0.00 in0.0 mm 0.00 in0.0 mm
04:00 PM 60.9°F16.1°C 58.6°F14.8°C 92% 4.0 mph S6.4 kmh S 6.0 mph9.7 kmh 29.36 in994.2 mb 0.00 in0.0 mm 0.00 in0.0 mm 0.00 in0.0 mm
04:05 PM 61.0°F16.1°C 58.7°F14.8°C 92% 1.0 mph S1.6 kmh S 6.0 mph9.7 kmh 29.36 in994.2 mb 0.00 in0.0 mm 0.00 in0.0 mm 0.00 in0.0 mm
04:10 PM 61.0°F16.1°C 58.7°F14.8°C 92% 2.0 mph S3.2 kmh S 6.0 mph9.7 kmh 29.36 in994.2 mb 0.00 in0.0 mm 0.00 in0.0 mm 0.00 in0.0 mm
04:15 PM 61.1°F16.2°C 59.1°F15.1°C 93% 3.0 mph S4.8 kmh S 3.0 mph4.8 kmh 29.36 in994.2 mb 0.00 in0.0 mm 0.00 in0.0 mm 0.00 in0.0 mm
04:20 PM 61.1°F16.2°C 59.1°F15.1°C 93% 1.0 mph S1.6 kmh S 3.0 mph4.8 kmh 29.35 in993.9 mb 0.00 in0.0 mm 0.00 in0.0 mm 0.00 in0.0 mm
04:25 PM 61.1°F16.2°C 58.8°F14.9°C 92% 2.0 mph S3.2 kmh S 3.0 mph4.8 kmh 29.34 in993.6 mb 0.00 in0.0 mm 0.00 in0.0 mm 0.00 in0.0 mm
04:30 PM 61.1°F16.2°C 58.8°F14.9°C 92% Calm Calm 3.0 mph4.8 kmh 29.35 in993.9 mb 0.00 in0.0 mm 0.00 in0.0 mm 0.00 in0.0 mm
04:35 PM 61.1°F16.2°C 58.8°F14.9°C 92% 1.0 mph S1.6 kmh S 6.0 mph9.7 kmh 29.36 in994.2 mb 0.00 in0.0 mm 0.00 in0.0 mm 0.00 in0.0 mm
04:40 PM 61.2°F16.2°C 59.2°F15.1°C 93% 1.0 mph SSE1.6 kmh SSE 7.0 mph11.3 kmh 29.38 in994.9 mb 0.00 in0.0 mm 0.00 in0.0 mm 0.00 in0.0 mm
04:45 PM 61.4°F16.3°C 59.4°F15.2°C 93% 3.0 mph SSE4.8 kmh SSE 5.0 mph8.0 kmh 29.37 in994.6 mb 0.00 in0.0 mm 0.00 in0.0 mm 0.00 in0.0 mm
04:50 PM 61.4°F16.3°C 59.1°F15.1°C 92% 1.0 mph SSE1.6 kmh SSE 5.0 mph8.0 kmh 29.36 in994.2 mb 0.00 in0.0 mm 0.00 in0.0 mm 0.00 in0.0 mm
04:55 PM 61.4°F16.3°C 59.1°F15.1°C 92% Calm Calm 5.0 mph8.0 kmh 29.37 in994.6 mb 0.00 in0.0 mm 0.00 in0.0 mm 0.00 in0.0 mm
05:00 PM 61.4°F16.3°C 59.1°F15.1°C 92% 1.0 mph SSE1.6 kmh SSE 1.0 mph1.6 kmh 29.35 in993.9 mb 0.00 in0.0 mm 0.00 in0.0 mm 0.00 in0.0 mm
05:05 PM 61.4°F16.3°C 59.4°F15.2°C 93% Calm Calm 2.0 mph3.2 kmh 29.35 in993.9 mb 0.00 in0.0 mm 0.00 in0.0 mm 0.00 in0.0 mm
05:10 PM 61.4°F16.3°C 59.4°F15.2°C 93% 2.0 mph SSE3.2 kmh SSE 2.0 mph3.2 kmh 29.35 in993.9 mb 0.00 in0.0 mm 0.00 in0.0 mm 0.00 in0.0 mm
05:15 PM 61.3°F16.3°C 59.3°F15.2°C 93% 1.0 mph SSE1.6 kmh SSE 3.0 mph4.8 kmh 29.35 in993.9 mb 0.00 in0.0 mm 0.00 in0.0 mm 0.00 in0.0 mm
05:20 PM 61.3°F16.3°C 59.3°F15.2°C 93% 2.0 mph SSE3.2 kmh SSE 6.0 mph9.7 kmh 29.35 in993.9 mb 0.00 in0.0 mm 0.00 in0.0 mm 0.00 in0.0 mm
05:25 PM 61.3°F16.3°C 59.3°F15.2°C 93% 1.0 mph SSE1.6 kmh SSE 6.0 mph9.7 kmh 29.34 in993.6 mb 0.00 in0.0 mm 0.00 in0.0 mm 0.00 in0.0 mm
05:30 PM 61.4°F16.3°C 59.4°F15.2°C 93% Calm Calm 5.0 mph8.0 kmh 29.34 in993.6 mb 0.00 in0.0 mm 0.00 in0.0 mm 0.00 in0.0 mm
05:35 PM 61.5°F16.4°C 59.5°F15.3°C 93% 5.0 mph S8.0 kmh S 6.0 mph9.7 kmh 29.33 in993.2 mb 0.00 in0.0 mm 0.00 in0.0 mm 0.00 in0.0 mm
05:40 PM 61.5°F16.4°C 59.5°F15.3°C 93% 2.0 mph SSW3.2 kmh SSW 6.0 mph9.7 kmh 29.33 in993.2 mb 0.00 in0.0 mm 0.00 in0.0 mm 0.00 in0.0 mm
05:45 PM 61.5°F16.4°C 59.8°F15.4°C 94% Calm Calm 3.0 mph4.8 kmh 29.33 in993.2 mb 0.00 in0.0 mm 0.00 in0.0 mm 0.00 in0.0 mm
05:50 PM 61.5°F16.4°C 59.8°F15.4°C 94% 3.0 mph SSW4.8 kmh SSW 4.0 mph6.4 kmh 29.34 in993.6 mb 0.00 in0.0 mm 0.00 in0.0 mm 0.00 in0.0 mm
05:55 PM 61.5°F16.4°C 59.8°F15.4°C 94% Calm Calm 4.0 mph6.4 kmh 29.36 in994.2 mb 0.00 in0.0 mm 0.00 in0.0 mm 0.00 in0.0 mm
06:00 PM 61.6°F16.4°C 59.9°F15.5°C 94% Calm Calm 4.0 mph6.4 kmh 29.37 in994.6 mb 0.00 in0.0 mm 0.00 in0.0 mm 0.00 in0.0 mm
06:05 PM 61.5°F16.4°C 59.8°F15.4°C 94% Calm Calm 4.0 mph6.4 kmh 29.36 in994.2 mb 0.00 in0.0 mm 0.00 in0.0 mm 0.00 in0.0 mm
06:10 PM 61.6°F16.4°C 59.9°F15.5°C 94% 2.0 mph SSW3.2 kmh SSW 5.0 mph8.0 kmh 29.37 in994.6 mb 0.00 in0.0 mm 0.00 in0.0 mm 0.00 in0.0 mm
06:15 PM 61.6°F16.4°C 59.9°F15.5°C 94% 3.0 mph SSW4.8 kmh SSW 5.0 mph8.0 kmh 29.39 in995.3 mb 0.00 in0.0 mm 0.00 in0.0 mm 0.00 in0.0 mm
06:20 PM 61.7°F16.5°C 60.0°F15.6°C 94% 1.0 mph SSW1.6 kmh SSW 5.0 mph8.0 kmh 29.38 in994.9 mb 0.00 in0.0 mm 0.00 in0.0 mm 0.00 in0.0 mm
06:25 PM 61.7°F16.5°C 60.0°F15.6°C 94% 3.0 mph SSW4.8 kmh SSW 6.0 mph9.7 kmh 29.39 in995.3 mb 0.00 in0.0 mm 0.00 in0.0 mm 0.00 in0.0 mm
06:30 PM 61.7°F16.5°C 60.0°F15.6°C 94% 2.0 mph SSW3.2 kmh SSW 8.0 mph12.9 kmh 29.40 in995.6 mb 0.00 in0.0 mm 0.00 in0.0 mm 0.00 in0.0 mm
06:35 PM 61.8°F16.6°C 60.1°F15.6°C 94% 2.0 mph SSW3.2 kmh SSW 8.0 mph12.9 kmh 29.39 in995.3 mb 0.00 in0.0 mm 0.00 in0.0 mm 0.00 in0.0 mm
06:40 PM 61.7°F16.5°C 60.0°F15.6°C 94% 3.0 mph SSW4.8 kmh SSW 8.0 mph12.9 kmh 29.39 in995.3 mb 0.00 in0.0 mm 0.00 in0.0 mm 0.00 in0.0 mm
06:45 PM 61.7°F16.5°C 60.0°F15.6°C 94% 5.0 mph SSW8.0 kmh SSW 8.0 mph12.9 kmh 29.40 in995.6 mb 0.00 in0.0 mm 0.00 in0.0 mm 0.00 in0.0 mm
06:50 PM 61.7°F16.5°C 60.0°F15.6°C 94% 6.0 mph SSW9.7 kmh SSW 8.0 mph12.9 kmh 29.41 in995.9 mb 0.00 in0.0 mm 0.00 in0.0 mm 0.00 in0.0 mm
06:55 PM 61.6°F16.4°C 59.6°F15.3°C 93% 6.0 mph SW9.7 kmh SW 10.0 mph16.1 kmh 29.41 in995.9 mb 0.00 in0.0 mm 0.00 in0.0 mm 0.00 in0.0 mm
07:00 PM 61.5°F16.4°C 59.5°F15.3°C 93% 4.0 mph SW6.4 kmh SW 10.0 mph16.1 kmh 29.41 in995.9 mb 0.00 in0.0 mm 0.00 in0.0 mm 0.00 in0.0 mm
07:05 PM 61.4°F16.3°C 59.4°F15.2°C 93% 9.0 mph SW14.5 kmh SW 14.0 mph22.5 kmh 29.42 in996.3 mb 0.00 in0.0 mm 0.00 in0.0 mm 0.00 in0.0 mm
07:10 PM 61.2°F16.2°C 58.6°F14.8°C 91% 10.0 mph SW16.1 kmh SW 14.0 mph22.5 kmh 29.43 in996.6 mb 0.00 in0.0 mm 0.00 in0.0 mm 0.00 in0.0 mm
07:15 PM 61.1°F16.2°C 58.2°F14.6°C 90% 7.0 mph SW11.3 kmh SW 15.0 mph24.1 kmh 29.43 in996.6 mb 0.00 in0.0 mm 0.00 in0.0 mm 0.00 in0.0 mm
07:20 PM 61.0°F16.1°C 58.4°F14.7°C 91% 4.0 mph SW6.4 kmh SW 15.0 mph24.1 kmh 29.43 in996.6 mb 0.00 in0.0 mm 0.00 in0.0 mm 0.00 in0.0 mm
07:25 PM 61.0°F16.1°C 58.4°F14.7°C 91% 3.0 mph SW4.8 kmh SW 15.0 mph24.1 kmh 29.44 in997.0 mb 0.00 in0.0 mm 0.00 in0.0 mm 0.00 in0.0 mm
07:30 PM 61.0°F16.1°C 58.7°F14.8°C 92% 3.0 mph SW4.8 kmh SW 8.0 mph12.9 kmh 29.44 in997.0 mb 0.00 in0.0 mm 0.00 in0.0 mm 0.00 in0.0 mm
07:35 PM 60.9°F16.1°C 58.3°F14.6°C 91% 8.0 mph WSW12.9 kmh WSW 16.0 mph25.7 kmh 29.42 in996.3 mb 0.00 in0.0 mm 0.00 in0.0 mm 0.00 in0.0 mm
07:40 PM 60.4°F15.8°C 57.2°F14.0°C 89% 12.0 mph WSW19.3 kmh WSW 16.0 mph25.7 kmh 29.42 in996.3 mb 0.00 in0.0 mm 0.00 in0.0 mm 0.00 in0.0 mm
07:45 PM 60.4°F15.8°C 56.8°F13.8°C 88% 8.0 mph SW12.9 kmh SW 14.0 mph22.5 kmh 29.43 in996.6 mb 0.00 in0.0 mm 0.00 in0.0 mm 0.00 in0.0 mm
07:50 PM 60.4°F15.8°C 56.8°F13.8°C 88% 14.0 mph SW22.5 kmh SW 14.0 mph22.5 kmh 29.44 in997.0 mb 0.00 in0.0 mm 0.00 in0.0 mm 0.00 in0.0 mm
07:55 PM 60.4°F15.8°C 56.5°F13.6°C 87% 8.0 mph SW12.9 kmh SW 15.0 mph24.1 kmh 29.45 in997.3 mb 0.00 in0.0 mm 0.00 in0.0 mm 0.00 in0.0 mm
08:00 PM 60.4°F15.8°C 56.5°F13.6°C 87% 10.0 mph SW16.1 kmh SW 11.0 mph17.7 kmh 29.46 in997.6 mb 0.00 in0.0 mm 0.00 in0.0 mm 0.00 in0.0 mm
08:05 PM 60.4°F15.8°C 56.5°F13.6°C 87% 8.0 mph SW12.9 kmh SW 11.0 mph17.7 kmh 29.46 in997.6 mb 0.00 in0.0 mm 0.00 in0.0 mm 0.00 in0.0 mm
08:10 PM 60.3°F15.7°C 56.4°F13.6°C 87% 11.0 mph WSW17.7 kmh WSW 11.0 mph17.7 kmh 29.46 in997.6 mb 0.00 in0.0 mm 0.00 in0.0 mm 0.00 in0.0 mm
08:15 PM 60.0°F15.6°C 55.5°F13.1°C 85% 17.0 mph SW27.4 kmh SW 17.0 mph27.4 kmh 29.46 in997.6 mb 0.00 in0.0 mm 0.00 in0.0 mm 0.00 in0.0 mm
08:20 PM 59.7°F15.4°C 54.9°F12.7°C 84% 16.0 mph WSW25.7 kmh WSW 23.0 mph37.0 kmh 29.45 in997.3 mb 0.00 in0.0 mm 0.00 in0.0 mm 0.00 in0.0 mm
08:25 PM 59.1°F15.1°C 54.0°F12.2°C 83% 14.0 mph SW22.5 kmh SW 26.0 mph41.8 kmh 29.43 in996.6 mb 0.00 in0.0 mm 0.00 in0.0 mm 0.00 in0.0 mm
08:30 PM 58.6°F14.8°C 53.1°F11.7°C 82% 16.0 mph SSW25.7 kmh SSW 23.0 mph37.0 kmh 29.42 in996.3 mb 0.00 in0.0 mm 0.00 in0.0 mm 0.00 in0.0 mm
08:35 PM 58.3°F14.6°C 52.5°F11.4°C 81% 11.0 mph SW17.7 kmh SW 23.0 mph37.0 kmh 29.43 in996.6 mb 0.00 in0.0 mm 0.00 in0.0 mm 0.00 in0.0 mm
08:40 PM 58.4°F14.7°C 52.6°F11.4°C 81% 17.0 mph SW27.4 kmh SW 23.0 mph37.0 kmh 29.45 in997.3 mb 0.00 in0.0 mm 0.00 in0.0 mm 0.00 in0.0 mm
08:45 PM 58.5°F14.7°C 52.7°F11.5°C 81% 10.0 mph SW16.1 kmh SW 19.0 mph30.6 kmh 29.46 in997.6 mb 0.00 in0.0 mm 0.00 in0.0 mm 0.00 in0.0 mm
08:50 PM 58.7°F14.8°C 52.9°F11.6°C 81% 12.0 mph SW19.3 kmh SW 19.0 mph30.6 kmh 29.47 in998.0 mb 0.00 in0.0 mm 0.00 in0.0 mm 0.00 in0.0 mm
08:55 PM 58.6°F14.8°C 52.8°F11.6°C 81% 12.0 mph SW19.3 kmh SW 19.0 mph30.6 kmh 29.48 in998.3 mb 0.00 in0.0 mm 0.00 in0.0 mm 0.00 in0.0 mm
09:00 PM 58.5°F14.7°C 51.0°F10.6°C 76% 11.0 mph SW17.7 kmh SW 34.0 mph54.7 kmh 29.49 in998.6 mb 0.00 in0.0 mm 0.00 in0.0 mm 0.00 in0.0 mm
09:05 PM 58.7°F14.8°C 51.5°F10.8°C 77% 11.0 mph SW17.7 kmh SW 34.0 mph54.7 kmh 29.50 in999.0 mb 0.00 in0.0 mm 0.00 in0.0 mm 0.00 in0.0 mm
09:10 PM 58.6°F14.8°C 51.1°F10.6°C 76% 12.0 mph SW19.3 kmh SW 34.0 mph54.7 kmh 29.51 in999.3 mb 0.00 in0.0 mm 0.00 in0.0 mm 0.00 in0.0 mm
09:15 PM 58.4°F14.7°C 49.8°F9.9°C 73% 12.0 mph SW19.3 kmh SW 20.0 mph32.2 kmh 29.51 in999.3 mb 0.00 in0.0 mm 0.00 in0.0 mm 0.00 in0.0 mm
09:20 PM 58.3°F14.6°C 49.3°F9.6°C 72% 14.0 mph SSW22.5 kmh SSW 21.0 mph33.8 kmh 29.51 in999.3 mb 0.00 in0.0 mm 0.00 in0.0 mm 0.00 in0.0 mm
09:25 PM 58.1°F14.5°C 48.8°F9.3°C 71% 6.0 mph SW9.7 kmh SW 21.0 mph33.8 kmh 29.51 in999.3 mb 0.00 in0.0 mm 0.00 in0.0 mm 0.00 in0.0 mm
09:30 PM 58.0°F14.4°C 48.7°F9.3°C 71% 15.0 mph WSW24.1 kmh WSW 19.0 mph30.6 kmh 29.52 in999.7 mb 0.00 in0.0 mm 0.00 in0.0 mm 0.00 in0.0 mm
09:35 PM 57.9°F14.4°C 48.9°F9.4°C 72% 23.0 mph SW37.0 kmh SW 23.0 mph37.0 kmh 29.52 in999.7 mb 0.00 in0.0 mm 0.00 in0.0 mm 0.00 in0.0 mm
09:40 PM 57.8°F14.3°C 47.7°F8.7°C 69% 9.0 mph SSW14.5 kmh SSW 24.0 mph38.6 kmh 29.51 in999.3 mb 0.00 in0.0 mm 0.00 in0.0 mm 0.00 in0.0 mm
09:45 PM 57.8°F14.3°C 48.1°F8.9°C 70% 14.0 mph SW22.5 kmh SW 18.0 mph29.0 kmh 29.51 in999.3 mb 0.00 in0.0 mm 0.00 in0.0 mm 0.00 in0.0 mm
09:50 PM 57.7°F14.3°C 47.6°F8.7°C 69% 6.0 mph SW9.7 kmh SW 18.0 mph29.0 kmh 29.51 in999.3 mb 0.00 in0.0 mm 0.00 in0.0 mm 0.00 in0.0 mm
09:55 PM 57.7°F14.3°C 48.0°F8.9°C 70% 7.0 mph SW11.3 kmh SW 18.0 mph29.0 kmh 29.51 in999.3 mb 0.00 in0.0 mm 0.00 in0.0 mm 0.00 in0.0 mm
10:00 PM 57.6°F14.2°C 48.3°F9.1°C 71% 4.0 mph SW6.4 kmh SW 13.0 mph20.9 kmh 29.51 in999.3 mb 0.00 in0.0 mm 0.00 in0.0 mm 0.00 in0.0 mm
10:05 PM 57.5°F14.2°C 47.8°F8.8°C 70% 7.0 mph SSW11.3 kmh SSW 14.0 mph22.5 kmh 29.51 in999.3 mb 0.00 in0.0 mm 0.00 in0.0 mm 0.00 in0.0 mm
10:10 PM 57.4°F14.1°C 47.7°F8.7°C 70% 5.0 mph SSW8.0 kmh SSW 17.0 mph27.4 kmh 29.51 in999.3 mb 0.00 in0.0 mm 0.00 in0.0 mm 0.00 in0.0 mm
10:15 PM 57.3°F14.1°C 48.0°F8.9°C 71% 14.0 mph SW22.5 kmh SW 17.0 mph27.4 kmh 29.51 in999.3 mb 0.00 in0.0 mm 0.00 in0.0 mm 0.00 in0.0 mm
10:20 PM 57.3°F14.1°C 48.4°F9.1°C 72% 5.0 mph SSW8.0 kmh SSW 17.0 mph27.4 kmh 29.52 in999.7 mb 0.00 in0.0 mm 0.00 in0.0 mm 0.00 in0.0 mm
10:25 PM 57.1°F13.9°C 47.8°F8.8°C 71% 7.0 mph SW11.3 kmh SW 17.0 mph27.4 kmh 29.52 in999.7 mb 0.00 in0.0 mm 0.00 in0.0 mm 0.00 in0.0 mm
10:30 PM 57.1°F13.9°C 47.8°F8.8°C 71% 8.0 mph SSW12.9 kmh SSW 16.0 mph25.7 kmh 29.53 in1000.0 mb 0.00 in0.0 mm 0.00 in0.0 mm 0.00 in0.0 mm
10:35 PM 57.2°F14.0°C 47.9°F8.8°C 71% 9.0 mph SW14.5 kmh SW 19.0 mph30.6 kmh 29.53 in1000.0 mb 0.00 in0.0 mm 0.00 in0.0 mm 0.00 in0.0 mm
10:40 PM 57.1°F13.9°C 47.8°F8.8°C 71% 7.0 mph SSW11.3 kmh SSW 19.0 mph30.6 kmh 29.52 in999.7 mb 0.00 in0.0 mm 0.00 in0.0 mm 0.00 in0.0 mm
10:45 PM 57.2°F14.0°C 47.5°F8.6°C 70% 7.0 mph SW11.3 kmh SW 18.0 mph29.0 kmh 29.53 in1000.0 mb 0.00 in0.0 mm 0.00 in0.0 mm 0.00 in0.0 mm
10:50 PM 57.2°F14.0°C 47.9°F8.8°C 71% 6.0 mph SSW9.7 kmh SSW 18.0 mph29.0 kmh 29.53 in1000.0 mb 0.00 in0.0 mm 0.00 in0.0 mm 0.00 in0.0 mm
10:55 PM 57.2°F14.0°C 47.9°F8.8°C 71% 14.0 mph SSW22.5 kmh SSW 18.0 mph29.0 kmh 29.53 in1000.0 mb 0.00 in0.0 mm 0.00 in0.0 mm 0.00 in0.0 mm
11:00 PM 57.3°F14.1°C 47.6°F8.7°C 70% 5.0 mph SW8.0 kmh SW 20.0 mph32.2 kmh 29.54 in1000.3 mb 0.00 in0.0 mm 0.00 in0.0 mm 0.00 in0.0 mm
11:05 PM 57.4°F14.1°C 47.7°F8.7°C 70% 10.0 mph SW16.1 kmh SW 20.0 mph32.2 kmh 29.54 in1000.3 mb 0.00 in0.0 mm 0.00 in0.0 mm 0.00 in0.0 mm
11:10 PM 57.5°F14.2°C 47.4°F8.6°C 69% 11.0 mph SSW17.7 kmh SSW 20.0 mph32.2 kmh 29.54 in1000.3 mb 0.00 in0.0 mm 0.00 in0.0 mm 0.00 in0.0 mm
11:15 PM 57.5°F14.2°C 47.4°F8.6°C 69% 10.0 mph SSW16.1 kmh SSW 19.0 mph30.6 kmh 29.54 in1000.3 mb 0.00 in0.0 mm 0.00 in0.0 mm 0.00 in0.0 mm
11:20 PM 57.5°F14.2°C 47.4°F8.6°C 69% 7.0 mph SSW11.3 kmh SSW 19.0 mph30.6 kmh 29.55 in1000.7 mb 0.00 in0.0 mm 0.00 in0.0 mm 0.00 in0.0 mm
11:25 PM 57.5°F14.2°C 47.4°F8.6°C 69% 9.0 mph SW14.5 kmh SW 19.0 mph30.6 kmh 29.55 in1000.7 mb 0.00 in0.0 mm 0.00 in0.0 mm 0.00 in0.0 mm
11:30 PM 57.5°F14.2°C 47.4°F8.6°C 69% 12.0 mph SSW19.3 kmh SSW 17.0 mph27.4 kmh 29.56 in1001.0 mb 0.00 in0.0 mm 0.00 in0.0 mm 0.00 in0.0 mm
11:35 PM 57.5°F14.2°C 47.0°F8.3°C 68% 14.0 mph SW22.5 kmh SW 21.0 mph33.8 kmh 29.56 in1001.0 mb 0.00 in0.0 mm 0.00 in0.0 mm 0.00 in0.0 mm
11:40 PM 57.4°F14.1°C 46.9°F8.3°C 68% 9.0 mph SW14.5 kmh SW 21.0 mph33.8 kmh 29.56 in1001.0 mb 0.00 in0.0 mm 0.00 in0.0 mm 0.00 in0.0 mm
11:45 PM 57.5°F14.2°C 47.0°F8.3°C 68% 10.0 mph SSW16.1 kmh SSW 15.0 mph24.1 kmh 29.56 in1001.0 mb 0.00 in0.0 mm 0.00 in0.0 mm 0.00 in0.0 mm
11:50 PM 57.4°F14.1°C 46.9°F8.3°C 68% 9.0 mph SW14.5 kmh SW 19.0 mph30.6 kmh 29.57 in1001.4 mb 0.00 in0.0 mm 0.00 in0.0 mm 0.00 in0.0 mm
11:55 PM 57.4°F14.1°C 46.9°F8.3°C 68% 17.0 mph SW27.4 kmh SW 19.0 mph30.6 kmh 29.57 in1001.4 mb 0.00 in0.0 mm 0.00 in0.0 mm 0.00 in0.0 mm